Weather History for Clinton, IA

Change the Weather History Date:

Thursday, October 31, 2013

  Actual Average Record
Temperature  
Mean Temperature 52 °F -  
Max Temperature 62 °F 60 °F 84 °F (1950)
Min Temperature 42 °F 41 °F 23 °F (1993)
Degree Days  
Heating Degree Days 13    
Growing Degree Days 2 (Base 50)    
Moisture  
Dew Point 50 °F    
Average Humidity 85    
Maximum Humidity 94    
Minimum Humidity 81    
Precipitation  
Precipitation 0.25 in - - ()
Sea Level Pressure  
Sea Level Pressure 29.51 in    
Wind  
Wind Speed 13 mph (WSW)    
Max Wind Speed 18 mph    
Max Gust Speed 24 mph    
Visibility 8 miles    
Events      
Averages and records for this station are not official NWS values.
T = Trace of Precipitation, MM = Missing Value Source: NWS Daily Summary

Daily Weather History Graph

Daily Weather History Graph

Search for Another Location

Airport:

Trip Planner

Search our weather history database for the weather conditions in past years. The results will help you decide how hot, cold, wet, or windy it might be!

Date:

Astronomy

Oct. 31, 2013 Rise Set
Actual Time 7:32 AM CDT 5:56 PM CDT
Civil Twilight 7:03 AM CDT 6:25 PM CDT
Nautical Twilight 6:30 AM CDT 6:58 PM CDT
Astronomical Twilight 5:58 AM CDT 7:30 PM CDT
Moon 4:19 AM CDT (10/31) 4:16 PM CDT (10/31)
Length of Visible Light 11h 21m
Length of Day
10h 23m
Waning Crescent, 10% of the Moon is Illuminated
Oct 31
Waning Crescent
Nov 3
New
Nov 9
First Quarter
Nov 17
Full
Nov 25
Last Quarter

Hourly Weather History & Observations

Time (CDT) Temp. Windchill Dew Point Humidity Pressure Visibility Wind Dir Wind Speed Gust Speed Precip Events Conditions
12:15 AM 59.0 °F - 55.4 °F 88% 29.73 in 10.0 mi SSE 11.5 mph - 0.01 in   Mostly Cloudy
12:35 AM 60.8 °F - 57.2 °F 88% 29.69 in 10.0 mi SSE 18.4 mph - 0.02 in   Mostly Cloudy
12:55 AM 60.8 °F - 57.2 °F 88% 29.69 in 10.0 mi South 16.1 mph 21.9 mph 0.03 in   Mostly Cloudy
1:15 AM 60.8 °F - 59.0 °F 94% 29.70 in 10.0 mi South 12.7 mph - N/A   Mostly Cloudy
1:35 AM 60.8 °F - 59.0 °F 94% 29.68 in 7.0 mi South 17.3 mph - N/A   Mostly Cloudy
1:55 AM 60.8 °F - 59.0 °F 94% 29.66 in 7.0 mi South 18.4 mph 24.2 mph N/A   Scattered Clouds
2:15 AM 62.6 °F - 59.0 °F 88% 29.67 in 9.0 mi SSW 8.1 mph - N/A   Mostly Cloudy
2:35 AM 60.8 °F - 57.2 °F 88% 29.67 in 8.0 mi WSW 8.1 mph - N/A   Overcast
2:55 AM 62.6 °F - 59.0 °F 88% 29.65 in 10.0 mi SSW 10.4 mph - N/A   Overcast
3:15 AM 62.6 °F - 59.0 °F 88% 29.65 in 10.0 mi SSW 11.5 mph - N/A   Overcast
3:35 AM 62.6 °F - 59.0 °F 88% 29.63 in 10.0 mi SW 12.7 mph - N/A   Overcast
3:55 AM 62.6 °F - 57.2 °F 82% 29.62 in 10.0 mi SW 11.5 mph - N/A   Overcast
4:15 AM 62.6 °F - 59.0 °F 88% 29.62 in 10.0 mi SSW 9.2 mph - N/A   Overcast
4:35 AM 62.6 °F - 57.2 °F 82% 29.61 in 10.0 mi SSW 9.2 mph - N/A   Overcast
4:55 AM 62.6 °F - 57.2 °F 82% 29.61 in 10.0 mi SSW 12.7 mph - N/A   Overcast
5:15 AM 62.6 °F - 57.2 °F 82% 29.60 in 10.0 mi SSW 12.7 mph - N/A   Overcast
5:35 AM 62.6 °F - 57.2 °F 82% 29.60 in 10.0 mi SW 15.0 mph - N/A   Overcast
5:55 AM 62.6 °F - 57.2 °F 82% 29.60 in 10.0 mi SSW 12.7 mph - N/A   Overcast
6:15 AM 62.6 °F - 57.2 °F 82% 29.58 in 10.0 mi SSW 11.5 mph - N/A   Overcast
6:35 AM 62.6 °F - 57.2 °F 82% 29.58 in 10.0 mi SSW 11.5 mph - N/A   Overcast
6:55 AM 62.6 °F - 57.2 °F 82% 29.57 in 10.0 mi SSW 11.5 mph 17.3 mph N/A   Overcast
7:15 AM 62.6 °F - 57.2 °F 82% 29.56 in 10.0 mi SSW 11.5 mph - N/A   Overcast
7:35 AM 62.6 °F - 57.2 °F 82% 29.57 in 10.0 mi SW 11.5 mph - N/A   Overcast
7:55 AM 60.8 °F - 57.2 °F 88% 29.57 in 5.0 mi SW 12.7 mph - N/A   Overcast
8:15 AM 60.8 °F - 57.2 °F 88% 29.56 in 2.0 mi SW 12.7 mph - N/A   Overcast
8:35 AM 60.8 °F - 57.2 °F 88% 29.55 in 2.5 mi SSW 11.5 mph - N/A   Overcast
8:55 AM 60.8 °F - 57.2 °F 88% 29.55 in 1.8 mi SSW 11.5 mph - N/A   Overcast
9:15 AM 60.8 °F - 57.2 °F 88% 29.54 in 3.0 mi SW 12.7 mph - N/A   Overcast
9:35 AM 60.8 °F - 57.2 °F 88% 29.53 in 1.8 mi SW 12.7 mph - N/A   Overcast
9:55 AM 60.8 °F - 57.2 °F 88% 29.52 in 2.0 mi SW 10.4 mph - N/A   Overcast
10:15 AM 60.8 °F - 57.2 °F 88% 29.51 in 7.0 mi WSW 9.2 mph - 0.01 in   Overcast
10:35 AM 59.0 °F - 57.2 °F 94% 29.51 in 3.0 mi West 9.2 mph - 0.01 in   Overcast
10:55 AM 59.0 °F - 55.4 °F 88% 29.50 in 3.0 mi West 9.2 mph - 0.01 in   Overcast
11:15 AM 59.0 °F - 55.4 °F 88% 29.49 in 5.0 mi West 10.4 mph - 0.02 in   Overcast
11:35 AM 57.2 °F - 55.4 °F 94% 29.49 in 1.5 mi West 9.2 mph - 0.02 in   Overcast
11:55 AM 57.2 °F - 53.6 °F 88% 29.48 in 4.0 mi West 11.5 mph - 0.04 in   Overcast
12:15 PM 55.4 °F - 53.6 °F 94% 29.46 in 2.5 mi WNW 10.4 mph - 0.02 in   Overcast
12:35 PM 55.4 °F - 51.8 °F 88% 29.45 in 5.0 mi WNW 17.3 mph 21.9 mph 0.03 in   Overcast
12:55 PM 53.6 °F - 50.0 °F 88% 29.46 in 6.0 mi West 15.0 mph - 0.05 in   Overcast
1:15 PM 53.6 °F - 48.2 °F 82% 29.44 in 9.0 mi WNW 13.8 mph - 0.03 in   Overcast
1:35 PM 51.8 °F - 48.2 °F 88% 29.42 in 10.0 mi WNW 17.3 mph - 0.04 in   Overcast
1:55 PM 51.8 °F - 48.2 °F 88% 29.40 in 10.0 mi NW 10.4 mph - 0.07 in   Overcast
2:15 PM 51.8 °F - 48.2 °F 88% 29.40 in 10.0 mi WNW 16.1 mph - 0.01 in   Overcast
2:35 PM 51.8 °F - 46.4 °F 82% 29.38 in 10.0 mi NW 11.5 mph 18.4 mph 0.02 in   Overcast
2:55 PM 50.0 °F - 46.4 °F 87% 29.38 in 10.0 mi NW 13.8 mph 18.4 mph 0.02 in   Overcast
3:15 PM 48.2 °F - 44.6 °F 87% 29.37 in 10.0 mi NW 11.5 mph 19.6 mph 0.01 in   Overcast
3:35 PM 50.0 °F - 46.4 °F 87% 29.38 in 10.0 mi NW 11.5 mph - 0.02 in   Overcast
3:55 PM 48.2 °F - 46.4 °F 93% 29.38 in 10.0 mi NNW 13.8 mph - 0.02 in   Overcast
4:15 PM 50.0 °F - 44.6 °F 82% 29.39 in 10.0 mi WNW 12.7 mph 18.4 mph N/A   Overcast
4:35 PM 48.2 °F - 44.6 °F 87% 29.39 in 10.0 mi NW 12.7 mph - N/A   Overcast
4:55 PM 48.2 °F - 42.8 °F 82% 29.40 in 10.0 mi WNW 15.0 mph - N/A   Overcast
5:15 PM 48.2 °F - 42.8 °F 82% 29.40 in 10.0 mi WNW 16.1 mph 21.9 mph N/A   Overcast
5:35 PM 46.4 °F 40.4 °F 42.8 °F 87% 29.41 in 9.0 mi WNW 13.8 mph 19.6 mph 0.01 in   Overcast
5:55 PM 46.4 °F 40.4 °F 42.8 °F 87% 29.42 in 10.0 mi WNW 13.8 mph - 0.01 in   Overcast
6:15 PM 46.4 °F 40.4 °F 41.0 °F 81% 29.42 in 10.0 mi WNW 13.8 mph - N/A   Overcast
6:35 PM 46.4 °F 40.4 °F 41.0 °F 81% 29.42 in 10.0 mi WNW 13.8 mph - N/A   Scattered Clouds
6:55 PM 44.6 °F 38.4 °F 39.2 °F 81% 29.43 in 10.0 mi WNW 12.7 mph - N/A   Mostly Cloudy
7:15 PM 44.6 °F 38.8 °F 39.2 °F 81% 29.45 in 10.0 mi West 11.5 mph - N/A   Overcast
7:35 PM 44.6 °F 36.9 °F 39.2 °F 81% 29.45 in 10.0 mi WNW 18.4 mph 24.2 mph N/A   Overcast
7:55 PM 44.6 °F 37.8 °F 39.2 °F 81% 29.44 in 10.0 mi WNW 15.0 mph 20.7 mph N/A   Overcast
8:15 PM 44.6 °F 38.8 °F 39.2 °F 81% 29.44 in 10.0 mi WNW 11.5 mph - N/A   Overcast
8:35 PM 44.6 °F 39.7 °F 39.2 °F 81% 29.45 in 10.0 mi West 9.2 mph - N/A   Overcast
8:55 PM 44.6 °F 37.8 °F 39.2 °F 81% 29.44 in 10.0 mi WNW 15.0 mph 20.7 mph N/A   Overcast
9:15 PM 44.6 °F 38.1 °F 39.2 °F 81% 29.44 in 10.0 mi West 13.8 mph - N/A   Overcast
9:35 PM 42.8 °F 35.4 °F 37.4 °F 81% 29.44 in 10.0 mi West 15.0 mph 19.6 mph N/A   Overcast
9:55 PM 42.8 °F 35.4 °F 37.4 °F 81% 29.46 in 10.0 mi West 15.0 mph 23.0 mph N/A   Overcast
10:15 PM 42.8 °F 35.8 °F 37.4 °F 81% 29.47 in 10.0 mi WNW 13.8 mph - N/A   Overcast
10:35 PM 42.8 °F 35.8 °F 37.4 °F 81% 29.49 in 10.0 mi West 13.8 mph 19.6 mph N/A   Overcast
10:55 PM 42.8 °F 35.8 °F 37.4 °F 81% 29.49 in 10.0 mi West 13.8 mph 18.4 mph N/A   Overcast
11:15 PM 42.8 °F 35.4 °F 37.4 °F 81% 29.49 in 10.0 mi West 15.0 mph - N/A   Overcast
11:35 PM 42.8 °F 36.2 °F 37.4 °F 81% 29.49 in 10.0 mi West 12.7 mph - N/A   Overcast
11:55 PM 42.8 °F 36.6 °F 37.4 °F 81% 29.50 in 10.0 mi West 11.5 mph - N/A   Overcast